Gulfport Biloxi International Airport
KGPT : now visible

Airfield :











YOU CAN JOIN US ON...

 
LOGIN :

Register | Disclaimer

   EN    FR    IT 

 









Legend :    VFR   Marginal VFR   IFR   Intensive IFR   Very Intensive IFR
Visi :
Ceiling :
>= 8 km
>= 3000ft
5 to 8 km
1000 to 3000 ft
1500m to 5 km
500 to 1000 ft
800 to 1500m
200 to 500 ft
< 800m
< 200 ft
Symbols :   Thunderstorms  Fog  Heavy snow  Heavy precipitations  Wind > 20 kt







- Airport Elevation : 28 ft
- IATA code : GPT


KGPT - Gulfport Biloxi International

CURRENT METAR :
  • 210153Z 00000KT 10SM CLR 25/22 A3000 RMK AO2 SLP157 T02500222

EXPIRED METARs :
  • 210119Z 00000KT 10SM FEW002 25/22 A3000 RMK AO2 T02500222
  • 210053Z 00000KT 10SM CLR 26/23 A2999 RMK AO2 SLP153 T02560228
  • 202353Z 30003KT 10SM BKN120 26/22 A3000 RMK AO2 SLP159 60002 T02610222 10283 20250 58013

TAF KGPT
Valid from the 21 at 00:00 until the 22 at 00:00 UTC


202335Z 2100/2124 VRB03KT P6SM OVC110
FM210200 00000KT P6SM SCT030
FM211500 VRB04KT P6SM SCT025 BKN090
FM211800 18006KT P6SM BKN030
PROB30 2118/2121 4SM TS BKN030CB
KZHU FIR / North America



MET'MAP, your aeronautical weather chart ! - Copyright ORBIFLY December 2007 - Disclaimer

ORBIFLY MET'MAP TEAM :

Programming & Development : Alexandra Zaïnal
Concept & Development : Baudouin d'Aumeries
Co-Development & Prog : Marc-Olivier Méhu
Technical & hardware support : Manuel Goepfert

Contact : metmap@orbifly.com




SOURCES & CREDITS :

   NOAA       Earth
Advisory